Time;durP1;ratioP1;P1;durP2;ratioP2;P2;SDS_P1;SDS_P2;PMS_P1;PMS_P2;Temp;Humidity;BMP_temperature;BMP_pressure;BME280_temperature;BME280_humidity;BME280_pressure;Samples;Min_cycle;Max_cycle;Signal;HPM_P1;HPM_P2
2023/02/10 00:01:33;;;;;;;29.37;17.13;;;;;;;-2.18;46.76;101733.91;5041963;28;20104;-81
2023/02/10 00:03:59;;;;;;;25.63;16.63;;;;;;;-2.49;46.64;101687.34;5040597;28;20079;-82
2023/02/10 00:06:26;;;;;;;25.87;14.63;;;;;;;-1.94;47.02;101774.63;5038437;28;20060;-82
2023/02/10 00:08:57;;;;;;;37.73;23.27;;;;;;;-2.59;46.82;101655.72;5034653;28;20056;-82
2023/02/10 00:11:56;;;;;;;44.07;24.77;;;;;;;-1.94;46.89;101775.47;5033846;28;20033;-81
2023/02/10 00:14:09;;;;;;;28.37;18.20;;;;;;;-3.78;46.43;101531.38;5033150;28;20679;-81
2023/02/10 00:16:35;;;;;;;28.67;18.17;;;;;;;-2.08;47.07;101787.13;5032561;28;20076;-82
2023/02/10 00:19:00;;;;;;;28.47;15.43;;;;;;;-1.99;46.91;101782.53;5033718;28;20513;-81
2023/02/10 00:21:26;;;;;;;26.03;16.20;;;;;;;-2.76;46.99;101668.25;5033482;28;20045;-81
2023/02/10 00:23:51;;;;;;;34.60;19.67;;;;;;;-2.83;47.12;101665.00;5033923;28;20391;-81
2023/02/10 00:26:17;;;;;;;26.03;16.33;;;;;;;-2.31;46.96;101726.47;5033821;28;20105;-81
2023/02/10 00:28:42;;;;;;;27.37;16.37;;;;;;;-2.21;46.67;101773.66;5033322;28;20025;-81
2023/02/10 00:31:10;;;;;;;26.80;17.37;;;;;;;-2.90;47.55;101640.19;5033487;28;20025;-81
2023/02/10 00:33:36;;;;;;;26.03;15.63;;;;;;;-2.26;47.18;101752.22;5033529;28;20022;-81
2023/02/10 00:36:06;;;;;;;23.50;14.90;;;;;;;-3.08;47.60;101622.56;5033743;28;20091;-81
2023/02/10 00:38:31;;;;;;;24.97;16.37;;;;;;;-4.12;47.16;101488.38;5037207;28;20104;-81
2023/02/10 00:41:05;;;;;;;25.23;15.70;;;;;;;-3.21;47.59;101593.63;5040366;28;20162;-81
2023/02/10 00:43:31;;;;;;;22.40;14.97;;;;;;;-2.81;47.49;101657.19;5039620;28;20414;-81
2023/02/10 00:45:56;;;;;;;24.57;15.53;;;;;;;-3.21;47.58;101593.63;5038975;28;20052;-81
2023/02/10 00:48:22;;;;;;;26.17;15.20;;;;;;;-3.99;47.45;101536.19;5038150;28;20125;-81
2023/02/10 00:50:47;;;;;;;23.77;15.77;;;;;;;-3.11;47.17;101601.97;5039981;28;20513;-81
2023/02/10 00:53:12;;;;;;;25.50;16.40;;;;;;;-3.26;47.36;101574.81;5036988;28;20057;-81
2023/02/10 00:55:38;;;;;;;24.90;14.67;;;;;;;-2.39;47.44;101737.91;5031689;28;20479;-81
2023/02/10 00:58:03;;;;;;;24.30;15.03;;;;;;;-3.14;47.69;101615.81;5031540;28;20029;-81
2023/02/10 01:00:29;;;;;;;24.80;14.63;;;;;;;-2.69;47.22;101691.31;5031578;28;20033;-81
2023/02/10 01:02:55;;;;;;;28.57;16.97;;;;;;;-2.74;47.49;101675.06;5033386;28;20083;-81
2023/02/10 01:05:20;;;;;;;25.60;16.53;;;;;;;-3.00;46.93;101636.97;5035267;28;20029;-81
2023/02/10 01:07:45;;;;;;;25.90;16.13;;;;;;;-2.91;47.09;101647.09;5035541;28;20040;-81
2023/02/10 01:10:11;;;;;;;24.83;15.20;;;;;;;-2.85;47.67;101673.66;5033798;28;20116;-81
2023/02/10 01:12:36;;;;;;;24.27;15.63;;;;;;;-3.08;47.73;101635.47;5035069;28;20030;-81
2023/02/10 01:15:02;;;;;;;27.27;18.00;;;;;;;-3.27;47.20;101609.28;5034602;28;20030;-81
2023/02/10 01:17:27;;;;;;;26.23;17.20;;;;;;;-3.32;47.59;101577.56;5033425;28;20036;-81
2023/02/10 01:19:53;;;;;;;28.73;17.83;;;;;;;-3.30;47.65;101606.78;5034743;28;20084;-81
2023/02/10 01:22:18;;;;;;;30.83;18.40;;;;;;;-3.56;47.36;101579.88;5034600;28;20140;-81
2023/02/10 01:24:44;;;;;;;26.43;17.63;;;;;;;-3.00;47.48;101641.28;5034366;28;20032;-81
2023/02/10 01:27:09;;;;;;;27.73;18.10;;;;;;;-3.54;47.79;101562.63;5033517;28;20104;-81
2023/02/10 01:29:34;;;;;;;29.03;17.90;;;;;;;-4.49;47.69;101395.56;5034196;28;20118;-81
2023/02/10 01:32:00;;;;;;;38.37;20.30;;;;;;;-3.70;47.86;101566.47;5034153;28;20486;-81
2023/02/10 01:34:26;;;;;;;31.97;19.97;;;;;;;-3.16;47.74;101627.94;5032790;28;20029;-81
2023/02/10 01:36:52;;;;;;;27.27;17.43;;;;;;;-3.35;47.82;101608.63;5030975;28;20021;-81
2023/02/10 01:39:17;;;;;;;30.20;16.77;;;;;;;-3.88;48.13;101508.41;5035579;28;20039;-81
2023/02/10 01:41:42;;;;;;;23.87;15.17;;;;;;;-3.74;47.83;101538.16;5034693;28;20112;-81
2023/02/10 01:44:20;;;;;;;26.37;15.40;;;;;;;-2.61;48.07;101706.63;5036265;28;20518;-81
2023/02/10 01:46:47;;;;;;;24.07;14.13;;;;;;;-2.61;47.84;101704.88;5036789;28;20437;-81
2023/02/10 01:49:22;;;;;;;23.47;14.70;;;;;;;-3.33;47.82;101597.38;5037677;28;20085;-80
2023/02/10 01:52:03;;;;;;;25.73;16.13;;;;;;;-2.61;47.89;101704.03;5036351;28;20045;-81
2023/02/10 01:54:38;;;;;;;24.73;15.60;;;;;;;-2.70;47.98;101694.78;5034222;28;20403;-81
2023/02/10 01:57:04;;;;;;;23.07;14.60;;;;;;;-2.73;48.03;101730.22;5034028;28;20457;-81
2023/02/10 01:59:33;;;;;;;25.93;16.17;;;;;;;-3.73;47.52;101524.38;5033569;28;20087;-81
2023/02/10 02:02:03;;;;;;;22.13;14.10;;;;;;;-2.70;47.67;101693.94;5033835;28;20495;-81
2023/02/10 02:04:28;;;;;;;21.80;14.60;;;;;;;-2.84;47.69;101677.94;5029972;28;20518;-81
2023/02/10 02:06:54;;;;;;;22.30;14.27;;;;;;;-3.71;47.63;101548.44;5032005;28;20112;-81
2023/02/10 02:09:19;;;;;;;25.93;15.27;;;;;;;-3.39;47.54;101599.25;5030085;28;20111;-81
2023/02/10 02:11:59;;;;;;;20.73;12.33;;;;;;;-3.59;47.78;101576.53;5031673;28;20025;-81
2023/02/10 02:14:57;;;;;;;23.43;14.00;;;;;;;-3.64;47.75;101568.06;5030503;28;20020;-81
2023/02/10 02:17:23;;;;;;;21.63;13.87;;;;;;;-2.85;47.88;101687.44;5031519;28;20033;-81
2023/02/10 02:23:26;;;;;;;21.47;14.00;;;;;;;-2.93;47.89;101686.78;5031257;28;20157;-80
2023/02/10 02:26:19;;;;;;;23.97;15.30;;;;;;;-4.04;48.04;101495.91;5030188;28;20021;-81
2023/02/10 02:28:45;;;;;;;22.30;14.00;;;;;;;-2.97;47.84;101685.19;5030221;28;20517;-81
2023/02/10 02:31:37;;;;;;;21.03;13.87;;;;;;;-3.51;47.96;101603.00;5031536;28;20018;-81
2023/02/10 02:34:25;;;;;;;22.27;13.73;;;;;;;-3.03;47.96;101682.72;5031639;28;20029;-81
2023/02/10 02:36:57;;;;;;;23.70;14.07;;;;;;;-3.48;47.89;101633.91;5032038;28;20407;-81
2023/02/10 02:39:23;;;;;;;39.33;20.83;;;;;;;-3.74;48.18;101600.13;5036003;28;20053;-81
2023/02/10 02:42:04;;;;;;;43.57;22.67;;;;;;;-3.29;48.00;101644.63;5036635;28;20048;-81
2023/02/10 02:44:29;;;;;;;22.95;15.00;;;;;;;-3.33;47.93;101651.63;5036919;28;20489;-81
2023/02/10 02:47:10;;;;;;;25.00;14.53;;;;;;;-3.01;47.81;101693.88;5037938;28;20108;-81
2023/02/10 02:50:07;;;;;;;23.70;13.97;;;;;;;-3.17;48.30;101682.22;5035609;28;20037;-80
2023/02/10 02:53:11;;;;;;;25.73;15.77;;;;;;;-3.14;48.27;101684.72;5036539;28;20022;-80
2023/02/10 02:55:52;;;;;;;21.03;14.00;;;;;;;-3.20;48.33;101685.72;5036120;28;20502;-81
2023/02/10 02:58:17;;;;;;;24.17;13.63;;;;;;;-3.24;48.49;101681.53;5036066;28;20029;-81
2023/02/10 03:00:45;;;;;;;23.03;14.83;;;;;;;-3.48;48.43;101638.22;5036814;28;20025;-81
2023/02/10 03:03:11;;;;;;;20.33;13.23;;;;;;;-4.37;48.57;101484.69;5037490;28;20030;-81
2023/02/10 03:05:37;;;;;;;23.80;16.20;;;;;;;-3.39;48.40;101656.94;5037746;28;20022;-81
2023/02/10 03:08:03;;;;;;;22.37;14.17;;;;;;;-3.92;48.22;101565.28;5035368;28;20026;-81
2023/02/10 03:10:28;;;;;;;22.67;13.90;;;;;;;-4.00;48.34;101578.38;5036549;28;20022;-81
2023/02/10 03:12:54;;;;;;;23.03;14.90;;;;;;;-3.50;48.41;101656.34;5036717;28;20017;-81
2023/02/10 03:15:19;;;;;;;23.20;14.80;;;;;;;-3.61;48.62;101617.03;5035520;28;20017;-81
2023/02/10 03:17:45;;;;;;;24.67;14.73;;;;;;;-3.71;48.70;101590.59;5037021;28;20049;-81
2023/02/10 03:20:11;;;;;;;23.07;14.73;;;;;;;-3.97;47.95;101538.75;5036993;28;20034;-80
2023/02/10 03:22:36;;;;;;;22.37;14.33;;;;;;;-3.33;48.54;101636.13;5038746;28;20059;-81
2023/02/10 03:25:01;;;;;;;22.30;14.20;;;;;;;-4.19;48.38;101534.09;5039708;28;20021;-81
2023/02/10 03:27:27;;;;;;;25.57;16.60;;;;;;;-3.83;48.46;101540.09;5041537;28;20021;-81
2023/02/10 03:29:52;;;;;;;28.63;17.60;;;;;;;-3.87;48.15;101522.16;5038746;28;20053;-81
2023/02/10 03:32:19;;;;;;;22.60;16.03;;;;;;;-3.31;48.24;101636.06;5039168;28;20018;-81
2023/02/10 03:34:45;;;;;;;27.97;17.10;;;;;;;-3.75;48.29;101559.69;5039099;28;20490;-81
2023/02/10 03:37:11;;;;;;;28.40;17.43;;;;;;;-3.45;48.16;101620.94;5041423;28;20461;-81
2023/02/10 03:39:37;;;;;;;25.33;17.00;;;;;;;-3.64;48.66;101614.53;5039206;28;20013;-81
2023/02/10 03:42:02;;;;;;;29.93;18.63;;;;;;;-4.20;48.15;101509.19;5040297;28;20037;-81
2023/02/10 03:44:28;;;;;;;28.57;17.50;;;;;;;-4.07;48.31;101522.63;5040229;28;20022;-81
2023/02/10 03:46:53;;;;;;;27.33;16.70;;;;;;;-4.20;48.21;101470.50;5040376;28;20021;-81
2023/02/10 03:49:19;;;;;;;27.70;16.67;;;;;;;-3.63;48.35;101586.09;5040663;28;20388;-81
2023/02/10 03:51:44;;;;;;;24.43;16.13;;;;;;;-3.95;48.33;101539.56;5039356;28;20018;-81
2023/02/10 03:54:10;;;;;;;24.80;16.03;;;;;;;-3.93;48.40;101530.03;5034181;28;20026;-81
2023/02/10 03:56:35;;;;;;;28.50;17.10;;;;;;;-3.29;48.30;101666.16;5032848;28;20490;-81
2023/02/10 03:59:02;;;;;;;25.00;15.97;;;;;;;-4.41;48.42;101493.38;5034480;28;20017;-81
2023/02/10 04:01:27;;;;;;;25.27;17.73;;;;;;;-3.27;48.75;101685.03;5034325;28;20029;-81
2023/02/10 04:03:53;;;;;;;27.67;17.70;;;;;;;-3.26;48.58;101672.97;5032748;28;20032;-81
2023/02/10 04:06:18;;;;;;;27.30;18.30;;;;;;;-4.18;48.18;101533.22;5032982;28;20022;-81
2023/02/10 04:08:45;;;;;;;29.13;18.10;;;;;;;-3.42;48.43;101659.59;5032792;28;20021;-81
2023/02/10 04:11:11;;;;;;;31.70;20.60;;;;;;;-4.10;48.76;101535.59;5034021;28;20017;-81
2023/02/10 04:13:37;;;;;;;31.77;18.27;;;;;;;-3.40;48.34;101656.97;5032750;28;20517;-81
2023/02/10 04:16:14;;;;;;;23.63;15.77;;;;;;;-3.54;48.54;101654.72;5034126;28;20029;-81
2023/02/10 04:18:41;;;;;;;31.50;18.23;;;;;;;-3.49;48.27;101646.88;5032871;28;20448;-81
2023/02/10 04:21:09;;;;;;;21.83;14.40;;;;;;;-3.46;48.29;101655.38;5032720;28;20041;-81
2023/02/10 04:23:35;;;;;;;24.73;14.43;;;;;;;-3.60;48.29;101642.81;5033779;28;20026;-81
2023/02/10 04:26:00;;;;;;;23.67;15.90;;;;;;;-4.48;48.15;101492.63;5033462;28;20017;-81
2023/02/10 04:28:26;;;;;;;23.27;14.23;;;;;;;-4.23;48.71;101560.84;5033473;28;20017;-81
2023/02/10 04:30:57;;;;;;;23.40;16.00;;;;;;;-4.36;48.64;101527.63;5033486;28;20441;-81
2023/02/10 04:33:24;;;;;;;24.13;16.27;;;;;;;-4.09;48.55;101575.16;5033735;28;20583;-81
2023/02/10 04:35:51;;;;;;;25.90;16.90;;;;;;;-3.71;48.88;101638.78;5034518;28;20112;-81
2023/02/10 04:38:17;;;;;;;27.63;18.40;;;;;;;-3.71;48.36;101654.28;5034461;28;20045;-81
2023/02/10 04:40:42;;;;;;;28.77;17.63;;;;;;;-4.49;48.82;101527.88;5032915;28;20076;-81
2023/02/10 04:43:09;;;;;;;25.63;15.80;;;;;;;-3.93;48.60;101641.00;5034050;28;20076;-81
2023/02/10 04:45:35;;;;;;;29.73;19.33;;;;;;;-4.86;48.79;101491.75;5034689;28;20096;-81
2023/02/10 04:48:00;;;;;;;30.00;17.57;;;;;;;-4.43;49.03;101562.16;5032751;28;20080;-80
2023/02/10 04:50:26;;;;;;;30.33;19.97;;;;;;;-4.59;48.90;101541.00;5033256;28;20505;-81
2023/02/10 04:52:51;;;;;;;35.67;19.97;;;;;;;-3.77;48.90;101700.84;5034449;28;20017;-81
2023/02/10 04:55:16;;;;;;;34.50;22.00;;;;;;;-4.20;48.64;101634.72;5038923;28;20021;-81
2023/02/10 04:57:42;;;;;;;29.27;20.30;;;;;;;-4.10;48.89;101661.16;5038795;28;20048;-81
2023/02/10 05:00:08;;;;;;;28.63;19.13;;;;;;;-4.27;49.15;101617.69;5036448;28;20043;-81
2023/02/10 05:02:34;;;;;;;34.20;21.30;;;;;;;-4.67;48.51;101546.31;5037819;28;20429;-81
2023/02/10 05:04:59;;;;;;;34.97;22.77;;;;;;;-4.26;49.20;101611.63;5039537;28;20108;-80
2023/02/10 05:07:25;;;;;;;36.90;22.03;;;;;;;-4.66;48.96;101544.59;5038997;28;20021;-80
2023/02/10 05:09:50;;;;;;;33.97;20.07;;;;;;;-4.22;48.58;101641.63;5034889;28;20021;-81
2023/02/10 05:12:15;;;;;;;31.07;20.87;;;;;;;-4.71;48.65;101546.41;5034841;28;20025;-81
2023/02/10 05:14:41;;;;;;;35.10;22.60;;;;;;;-4.43;49.00;101588.81;5033909;28;20022;-81
2023/02/10 05:17:06;;;;;;;42.17;25.40;;;;;;;-3.72;49.03;101699.84;5034983;28;20029;-81
2023/02/10 05:19:32;;;;;;;43.63;23.60;;;;;;;-4.62;48.62;101541.91;5034339;28;20026;-81
2023/02/10 05:21:57;;;;;;;46.97;26.23;;;;;;;-6.04;48.72;101307.16;5034402;28;20041;-81
2023/02/10 05:24:23;;;;;;;91.10;42.43;;;;;;;-4.16;48.64;101615.72;5034305;28;20112;-81
2023/02/10 05:26:48;;;;;;;86.60;43.33;;;;;;;-4.11;49.16;101647.41;5034228;28;20026;-81
2023/02/10 05:29:14;;;;;;;113.13;49.80;;;;;;;-4.56;48.69;101540.94;5034110;28;20021;-81
2023/02/10 05:31:39;;;;;;;108.60;51.30;;;;;;;-4.32;48.50;101578.25;5032610;28;20591;-81
2023/02/10 05:34:05;;;;;;;120.57;52.47;;;;;;;-4.35;48.54;101583.47;5032088;28;20414;-80
2023/02/10 05:36:30;;;;;;;149.43;64.17;;;;;;;-4.00;48.70;101624.81;5030911;28;20028;-81
2023/02/10 05:41:39;;;;;;;128.33;57.10;;;;;;;-3.54;48.71;101738.19;5031400;28;20032;-81
2023/02/10 05:44:05;;;;;;;118.67;57.87;;;;;;;-3.80;48.60;101644.13;5031396;28;20022;-81
2023/02/10 05:46:30;;;;;;;114.07;55.70;;;;;;;-3.70;48.50;101705.00;5032622;28;20032;-81
2023/02/10 05:48:55;;;;;;;105.73;52.40;;;;;;;-3.84;48.91;101659.69;5034321;28;20030;-81
2023/02/10 05:51:21;;;;;;;95.17;51.97;;;;;;;-4.02;48.76;101623.13;5036061;28;20076;-81
2023/02/10 05:53:46;;;;;;;94.13;51.53;;;;;;;-4.17;49.20;101583.91;5034495;28;20021;-81
2023/02/10 05:56:12;;;;;;;96.73;54.57;;;;;;;-4.05;48.93;101616.31;5036527;28;20438;-81
2023/02/10 05:58:37;;;;;;;87.90;49.93;;;;;;;-4.39;48.73;101530.28;5034526;28;20029;-81
2023/02/10 06:01:07;;;;;;;81.90;50.00;;;;;;;-4.07;48.81;101573.38;5033715;28;20025;-81
2023/02/10 06:03:33;;;;;;;80.00;49.40;;;;;;;-3.54;48.52;101649.56;5034378;28;20047;-80
2023/02/10 06:05:58;;;;;;;79.30;49.07;;;;;;;-4.07;48.48;101563.91;5030859;28;20029;-81
2023/02/10 06:08:24;;;;;;;77.13;45.13;;;;;;;-3.39;48.09;101654.34;5033725;28;20513;-80
2023/02/10 06:10:49;;;;;;;94.07;56.80;;;;;;;-3.48;48.47;101643.41;5035944;28;20410;-81
2023/02/10 06:13:15;;;;;;;100.77;57.10;;;;;;;-3.44;48.24;101651.03;5037644;28;20461;-81
2023/02/10 06:15:40;;;;;;;88.37;49.73;;;;;;;-3.79;48.37;101589.06;5039750;28;20017;-81
2023/02/10 06:18:05;;;;;;;80.03;47.73;;;;;;;-4.02;48.77;101571.53;5038600;28;20025;-81
2023/02/10 06:20:31;;;;;;;88.67;50.43;;;;;;;-3.97;48.32;101556.81;5038963;28;20104;-81
2023/02/10 06:22:56;;;;;;;87.13;53.07;;;;;;;-3.41;48.12;101632.88;5038108;28;20041;-81
2023/02/10 06:25:22;;;;;;;81.67;48.33;;;;;;;-3.90;47.94;101546.28;5038634;28;20086;-81
2023/02/10 06:27:47;;;;;;;82.27;49.97;;;;;;;-3.69;48.33;101606.91;5037417;28;20117;-81
2023/02/10 06:30:13;;;;;;;85.40;50.50;;;;;;;-3.14;48.44;101720.91;5038496;28;20013;-81
2023/02/10 06:32:38;;;;;;;99.20;56.37;;;;;;;-4.19;48.41;101535.81;5039035;28;20088;-81
2023/02/10 06:35:04;;;;;;;91.33;52.90;;;;;;;-3.27;48.68;101689.34;5036862;28;20521;-81
2023/02/10 06:37:30;;;;;;;100.33;55.97;;;;;;;-3.91;48.86;101595.34;5032322;28;20574;-80
2023/02/10 06:39:55;;;;;;;99.13;56.50;;;;;;;-3.25;48.72;101675.50;5014211;28;20025;-81
2023/02/10 06:42:21;;;;;;;99.60;57.77;;;;;;;-2.95;48.45;101714.41;5019694;28;20460;-81
2023/02/10 06:44:46;;;;;;;102.20;58.53;;;;;;;-3.69;48.27;101564.75;5019667;28;20033;-81
2023/02/10 06:47:12;;;;;;;101.93;60.23;;;;;;;-3.73;48.48;101556.19;5036114;28;20536;-81
2023/02/10 06:49:37;;;;;;;92.73;55.27;;;;;;;-3.88;48.27;101521.31;5045425;28;20064;-81
2023/02/10 06:52:03;;;;;;;81.97;46.30;;;;;;;-2.72;48.15;101709.50;5017056;28;20113;-81
2023/02/10 06:54:28;;;;;;;79.70;50.67;;;;;;;-3.40;48.42;101607.91;5028044;28;20108;-81
2023/02/10 06:56:54;;;;;;;79.33;48.30;;;;;;;-3.49;48.44;101584.91;5032508;28;20022;-81
2023/02/10 06:59:20;;;;;;;77.20;48.47;;;;;;;-4.19;48.34;101466.19;5030881;28;20457;-81
2023/02/10 07:01:45;;;;;;;77.43;47.07;;;;;;;-2.70;47.84;101658.59;5041242;28;20021;-81
2023/02/10 07:04:11;;;;;;;77.03;46.10;;;;;;;-2.33;48.26;101720.50;5041779;28;20040;-81
2023/02/10 07:06:37;;;;;;;58.37;38.90;;;;;;;-3.50;48.14;101522.06;5040937;28;20024;-81
2023/02/10 07:09:03;;;;;;;57.80;35.40;;;;;;;-2.58;48.19;101671.19;5037719;28;20029;-81
2023/02/10 07:11:30;;;;;;;61.90;36.87;;;;;;;-2.26;48.40;101713.41;5034074;28;20026;-82
2023/02/10 07:13:56;;;;;;;55.70;35.80;;;;;;;-3.06;47.94;101556.19;5035774;28;20026;-81
2023/02/10 07:16:22;;;;;;;63.80;35.73;;;;;;;-2.86;48.57;101615.97;5035890;28;20025;-81
2023/02/10 07:18:47;;;;;;;57.73;34.47;;;;;;;-2.78;48.99;101600.22;5036440;28;20033;-81
2023/02/10 07:21:13;;;;;;;53.83;31.60;;;;;;;-2.37;49.01;101668.88;5037367;28;20059;-82
2023/02/10 07:23:38;;;;;;;57.07;34.53;;;;;;;-2.74;48.50;101584.59;5011061;28;20032;-81
2023/02/10 07:26:07;;;;;;;53.87;33.53;;;;;;;-2.08;48.78;101673.22;5011447;28;20036;-81
2023/02/10 07:28:33;;;;;;;50.83;32.33;;;;;;;-1.79;48.53;101761.22;5016047;28;20044;-81
2023/02/10 07:30:59;;;;;;;46.67;31.07;;;;;;;-1.62;48.20;101747.78;5011653;28;20029;-82
2023/02/10 07:33:24;;;;;;;35.70;21.33;;;;;;;-3.11;48.62;101508.97;5016698;28;20057;-81
2023/02/10 07:35:49;;;;;;;30.20;18.47;;;;;;;-2.11;48.71;101619.84;5000616;28;20088;-81
2023/02/10 07:38:15;;;;;;;26.67;16.20;;;;;;;-1.34;48.48;101733.09;4997977;28;20026;-81
2023/02/10 07:40:40;;;;;;;25.80;14.93;;;;;;;-1.79;48.34;101618.81;5022021;28;20029;-81
2023/02/10 07:43:06;;;;;;;22.33;14.57;;;;;;;-1.60;47.92;101663.97;5034638;28;20056;-81
2023/02/10 07:45:31;;;;;;;27.60;15.80;;;;;;;-1.53;48.04;101630.94;5035755;28;20507;-81
2023/02/10 07:47:57;;;;;;;24.53;16.87;;;;;;;-1.64;47.80;101617.47;5025641;28;20026;-81
2023/02/10 07:50:23;;;;;;;18.60;12.70;;;;;;;-1.65;47.80;101576.94;4996705;28;20030;-81
2023/02/10 07:52:49;;;;;;;20.00;12.40;;;;;;;-0.92;47.54;101695.44;4995748;28;20513;-81
2023/02/10 07:55:14;;;;;;;19.33;13.70;;;;;;;-1.74;47.21;101596.22;5008854;28;20513;-81
2023/02/10 07:57:41;;;;;;;20.00;12.67;;;;;;;-0.97;47.11;101651.53;5008422;28;20034;-80
2023/02/10 08:00:08;;;;;;;17.77;11.73;;;;;;;-0.60;46.64;101703.00;5023559;28;20029;-81
2023/02/10 08:02:33;;;;;;;20.70;12.57;;;;;;;-0.87;46.37;101644.28;5002525;28;20033;-81
2023/02/10 08:04:59;;;;;;;20.27;13.20;;;;;;;-1.45;46.83;101563.34;5018336;28;20029;-81
2023/02/10 08:07:25;;;;;;;20.47;15.13;;;;;;;-0.83;46.62;101653.66;5000559;28;20037;-81
2023/02/10 08:09:50;;;;;;;20.43;14.30;;;;;;;-1.36;46.71;101547.50;5019438;28;20030;-81
2023/02/10 08:12:16;;;;;;;24.07;15.13;;;;;;;-0.63;46.23;101652.97;5006435;28;20530;-81
2023/02/10 08:14:41;;;;;;;23.53;14.20;;;;;;;-1.21;46.30;101583.25;5007248;28;20033;-81
2023/02/10 08:17:06;;;;;;;19.10;12.53;;;;;;;-0.81;45.96;101623.31;5001886;28;20514;-81
2023/02/10 08:19:32;;;;;;;25.23;15.67;;;;;;;-0.87;46.23;101618.34;5013254;28;20064;-81
2023/02/10 08:21:57;;;;;;;33.50;19.30;;;;;;;-0.17;46.30;101717.03;5005805;28;20486;-81
2023/02/10 08:24:23;;;;;;;20.83;13.33;;;;;;;-1.00;45.73;101545.34;5020451;28;20052;-80
2023/02/10 08:26:48;;;;;;;19.90;13.03;;;;;;;-0.22;45.56;101680.84;5007982;28;20465;-80
2023/02/10 08:29:13;;;;;;;20.50;13.70;;;;;;;-0.90;45.45;101551.88;5002535;28;20030;-81
2023/02/10 08:31:39;;;;;;;24.10;14.90;;;;;;;-0.69;45.38;101574.47;5013529;28;20030;-81
2023/02/10 08:34:05;;;;;;;22.43;14.67;;;;;;;-0.76;45.25;101541.84;5006658;28;20036;-81
2023/02/10 08:36:31;;;;;;;28.60;16.27;;;;;;;-0.17;45.11;101641.72;5003266;28;20027;-81
2023/02/10 08:38:56;;;;;;;21.00;12.93;;;;;;;0.22;45.31;101710.34;5003140;28;20026;-81
2023/02/10 08:41:22;;;;;;;22.63;15.07;;;;;;;-1.02;45.08;101478.00;5015948;28;20122;-81
2023/02/10 08:43:47;;;;;;;24.87;16.60;;;;;;;-0.85;45.05;101516.25;4997462;28;20048;-81
2023/02/10 08:46:13;;;;;;;22.57;15.63;;;;;;;-0.31;45.02;101595.53;4996415;28;20565;-81
2023/02/10 08:48:39;;;;;;;28.33;15.77;;;;;;;-0.22;44.70;101628.94;5032862;28;20455;-81
2023/02/10 08:51:11;;;;;;;25.17;15.63;;;;;;;0.27;44.22;101666.00;5032987;28;20052;-81
2023/02/10 08:53:36;;;;;;;24.13;14.87;;;;;;;-0.09;44.59;101587.75;5017476;28;20166;-81
2023/02/10 08:56:08;;;;;;;18.23;12.27;;;;;;;0.10;44.07;101625.13;5005273;28;20490;-82
2023/02/10 08:58:34;;;;;;;19.80;13.15;;;;;;;-0.24;44.63;101532.09;5007905;28;20037;-81
2023/02/10 09:01:01;;;;;;;20.70;14.63;;;;;;;0.34;44.23;101602.50;5013983;28;20029;-81
2023/02/10 09:03:26;;;;;;;20.17;14.50;;;;;;;0.16;44.07;101572.06;5007456;28;20034;-81
2023/02/10 09:05:53;;;;;;;20.63;13.80;;;;;;;0.47;43.57;101637.47;5025087;28;20400;-82
2023/02/10 09:08:18;;;;;;;18.43;14.47;;;;;;;0.09;43.90;101542.06;5008518;28;20165;-81
2023/02/10 09:10:45;;;;;;;20.50;15.00;;;;;;;1.07;43.61;101689.63;4999350;28;20121;-81
2023/02/10 09:13:11;;;;;;;19.43;13.30;;;;;;;1.02;43.70;101688.97;5001719;28;20034;-81
2023/02/10 09:15:39;;;;;;;20.00;12.60;;;;;;;0.69;43.58;101637.44;5025070;28;20018;-81
2023/02/10 09:18:05;;;;;;;18.23;12.00;;;;;;;0.15;43.68;101560.00;5006917;28;20400;-82
2023/02/10 09:20:31;;;;;;;18.90;12.17;;;;;;;0.65;43.79;101622.88;5001610;28;20085;-82
2023/02/10 09:22:56;;;;;;;17.33;11.27;;;;;;;0.57;43.71;101631.00;5006292;28;20522;-81
2023/02/10 09:25:22;;;;;;;18.97;13.93;;;;;;;0.89;43.72;101640.06;5011423;28;20040;-81
2023/02/10 09:27:47;;;;;;;21.07;14.40;;;;;;;0.75;43.43;101608.59;5007641;28;20034;-82
2023/02/10 09:30:13;;;;;;;18.50;13.53;;;;;;;1.32;43.62;101673.81;5008710;28;20026;-82
2023/02/10 09:32:38;;;;;;;22.80;13.97;;;;;;;-0.03;43.36;101437.75;5013476;28;20037;-81
2023/02/10 09:35:04;;;;;;;18.50;13.57;;;;;;;1.32;43.18;101632.16;5016526;28;20172;-81
2023/02/10 09:37:30;;;;;;;19.77;14.17;;;;;;;0.72;43.10;101530.72;5026360;28;20491;-82
2023/02/10 09:39:55;;;;;;;20.53;14.97;;;;;;;1.41;42.90;101635.19;5010220;28;20030;-82
2023/02/10 09:42:35;;;;;;;16.10;11.37;;;;;;;1.14;42.17;101561.81;5026427;28;20033;-82
2023/02/10 09:45:25;;;;;;;17.33;10.50;;;;;;;1.72;41.40;101652.91;5012569;28;20053;-81
2023/02/10 09:47:53;;;;;;;16.20;10.70;;;;;;;1.83;42.05;101637.66;5028595;28;20041;-82
2023/02/10 09:51:01;;;;;;;13.93;8.73;;;;;;;1.96;41.75;101647.50;4999454;28;20042;-82
2023/02/10 09:53:29;;;;;;;14.87;9.23;;;;;;;1.77;42.19;101601.47;5001068;28;20046;-82
2023/02/10 09:55:57;;;;;;;14.00;9.93;;;;;;;2.20;41.88;101641.13;4996825;28;20053;-81
2023/02/10 09:58:35;;;;;;;11.40;8.77;;;;;;;2.30;41.50;101642.41;5000886;28;20030;-81
2023/02/10 10:01:36;;;;;;;15.53;9.90;;;;;;;2.43;42.02;101637.44;5003449;28;20030;-81
2023/02/10 10:04:14;;;;;;;12.13;8.70;;;;;;;2.59;41.29;101642.75;5000965;28;20042;-81
2023/02/10 10:06:44;;;;;;;12.73;8.80;;;;;;;1.59;41.57;101446.97;5005301;28;20027;-81
2023/02/10 10:09:10;;;;;;;14.13;8.40;;;;;;;2.73;41.95;101630.72;5015682;28;20079;-81
2023/02/10 10:11:45;;;;;;;9.33;7.47;;;;;;;2.03;41.17;101518.63;5004683;28;20120;-82
2023/02/10 10:14:28;;;;;;;11.57;7.37;;;;;;;2.33;41.41;101550.19;4984378;28;20022;-82
2023/02/10 10:17:23;;;;;;;10.50;6.83;;;;;;;2.43;41.49;101557.47;4995320;28;20113;-81
2023/02/10 10:19:55;;;;;;;9.63;6.30;;;;;;;2.86;41.30;101613.50;4994957;28;20105;-82
2023/02/10 10:22:41;;;;;;;12.00;7.43;;;;;;;2.46;41.42;101546.88;5004879;28;20139;-82
2023/02/10 10:25:25;;;;;;;9.80;7.17;;;;;;;3.09;41.67;101611.53;4988340;28;20081;-81
2023/02/10 10:28:03;;;;;;;12.80;7.53;;;;;;;2.73;41.03;101542.03;5000687;28;20241;-81
2023/02/10 10:30:35;;;;;;;11.17;7.57;;;;;;;3.18;41.06;101598.84;4994517;28;20392;-81
2023/02/10 10:33:14;;;;;;;8.33;5.50;;;;;;;2.90;41.14;101522.03;4991334;28;20100;-81
2023/02/10 10:35:42;;;;;;;12.70;7.33;;;;;;;2.54;40.88;101450.88;5000064;28;20030;-80
2023/02/10 10:38:14;;;;;;;8.10;5.00;;;;;;;3.53;40.83;101603.09;5001827;28;20053;-81
2023/02/10 10:40:45;;;;;;;11.65;6.78;;;;;;;3.05;40.13;101522.09;5009278;28;20034;-81
2023/02/10 10:43:17;;;;;;;8.60;5.80;;;;;;;3.08;40.33;101503.69;4994693;28;20040;-82
2023/02/10 10:45:47;;;;;;;11.87;7.73;;;;;;;3.69;39.75;101567.38;4994369;28;20034;-81
2023/02/10 10:48:26;;;;;;;11.60;7.00;;;;;;;3.52;40.19;101529.13;4995677;28;20418;-81
2023/02/10 10:50:55;;;;;;;8.30;5.60;;;;;;;3.35;39.64;101493.50;5016401;28;20030;-81
2023/02/10 10:53:43;;;;;;;12.27;7.00;;;;;;;3.44;39.76;101511.28;5005324;28;20137;-81
2023/02/10 10:56:23;;;;;;;10.93;7.47;;;;;;;3.87;39.10;101555.94;4999427;28;20539;-81
2023/02/10 10:58:50;;;;;;;7.23;5.73;;;;;;;3.88;39.66;101544.56;5007703;28;20534;-81
2023/02/10 11:01:29;;;;;;;8.60;7.27;;;;;;;3.92;39.50;101547.84;5018719;28;20034;-80
2023/02/10 11:04:13;;;;;;;9.23;7.03;;;;;;;3.56;39.22;101485.41;5013096;28;20042;-79
2023/02/10 11:06:40;;;;;;;12.00;7.10;;;;;;;3.85;39.34;101520.38;5014544;28;20030;-81
2023/02/10 11:09:34;;;;;;;12.73;8.13;;;;;;;3.99;38.84;101528.28;5003477;28;20033;-80
2023/02/10 11:12:02;;;;;;;8.60;5.83;;;;;;;4.10;38.74;101531.97;4994765;28;20117;-80
2023/02/10 11:14:35;;;;;;;8.67;6.53;;;;;;;3.90;38.48;101490.44;4992096;28;20026;-80
2023/02/10 11:17:01;;;;;;;7.97;6.07;;;;;;;3.01;38.34;101382.28;4993394;28;20517;-81
2023/02/10 11:19:32;;;;;;;10.37;7.17;;;;;;;4.09;38.35;101526.81;4999730;28;20030;-80
2023/02/10 11:21:59;;;;;;;9.30;6.43;;;;;;;3.32;38.18;101404.06;4995841;28;20043;-81
2023/02/10 11:24:31;;;;;;;9.23;6.10;;;;;;;3.36;37.81;101389.91;4993426;28;20108;-80